Time;durP1;ratioP1;P1;durP2;ratioP2;P2;SDS_P1;SDS_P2;PMS_P1;PMS_P2;Temp;Humidity;BMP_temperature;BMP_pressure;BME280_temperature;BME280_humidity;BME280_pressure;Samples;Min_cycle;Max_cycle;Signal;HPM_P1;HPM_P2
2021/01/29 00:00:35;;;;;;;1.00;0.68;;;2.20;99.90;;;;;;5032364;28;20041;-53
2021/01/29 00:03:05;;;;;;;1.95;0.90;;;2.20;99.90;;;;;;5035651;28;20471;-48
2021/01/29 00:05:42;;;;;;;1.92;0.70;;;2.20;99.90;;;;;;5037581;28;20120;-50
2021/01/29 00:08:09;;;;;;;1.50;0.75;;;2.30;99.90;;;;;;5035199;28;20677;-55
2021/01/29 00:10:35;;;;;;;1.60;0.70;;;2.20;99.90;;;;;;5034810;28;20426;-51
2021/01/29 00:13:01;;;;;;;1.63;0.70;;;2.20;99.90;;;;;;5033766;28;20131;-53
2021/01/29 00:15:28;;;;;;;0.77;0.63;;;2.20;99.90;;;;;;5027678;28;20136;-51
2021/01/29 00:17:53;;;;;;;1.23;0.70;;;2.10;99.90;;;;;;5019122;28;20029;-49
2021/01/29 00:20:22;;;;;;;2.00;1.05;;;2.10;99.90;;;;;;5027534;28;20043;-53
2021/01/29 00:22:48;;;;;;;1.33;0.80;;;2.20;99.90;;;;;;5026596;28;20084;-50
2021/01/29 00:25:20;;;;;;;1.38;0.77;;;2.20;99.90;;;;;;5024940;28;20127;-51
2021/01/29 00:27:45;;;;;;;1.42;0.75;;;2.20;99.90;;;;;;5009580;28;20131;-51
2021/01/29 00:30:14;;;;;;;0.95;0.65;;;2.20;99.90;;;;;;5022172;28;20599;-53
2021/01/29 00:32:40;;;;;;;0.85;0.60;;;2.20;99.90;;;;;;5014559;28;20176;-50
2021/01/29 00:35:06;;;;;;;2.55;0.50;;;2.20;99.90;;;;;;5015191;28;20033;-52
2021/01/29 00:37:32;;;;;;;0.95;0.60;;;2.20;99.90;;;;;;5023047;28;20116;-49
2021/01/29 00:39:57;;;;;;;0.77;0.57;;;2.30;99.90;;;;;;5022333;28;20171;-50
2021/01/29 00:42:23;;;;;;;1.50;0.50;;;2.30;99.90;;;;;;5025335;28;20603;-49
2021/01/29 00:44:48;;;;;;;1.67;0.55;;;2.30;99.90;;;;;;5018672;28;20351;-51
2021/01/29 00:47:14;;;;;;;0.70;0.47;;;2.30;99.90;;;;;;5025571;28;20178;-50
2021/01/29 00:49:39;;;;;;;1.00;0.50;;;2.30;99.90;;;;;;5025819;28;20135;-51
2021/01/29 00:52:05;;;;;;;0.70;0.50;;;2.30;99.90;;;;;;5016198;28;20034;-53
2021/01/29 00:54:30;;;;;;;0.60;0.40;;;2.30;99.90;;;;;;5025697;28;20053;-51
2021/01/29 00:56:56;;;;;;;1.17;0.60;;;2.30;99.90;;;;;;5018993;28;20052;-50
2021/01/29 00:59:21;;;;;;;1.38;0.43;;;2.40;99.90;;;;;;5021472;28;20042;-50
2021/01/29 01:01:47;;;;;;;1.90;0.68;;;2.30;99.90;;;;;;5021266;28;20061;-49
2021/01/29 01:04:13;;;;;;;1.38;0.70;;;2.30;99.90;;;;;;5022528;28;20041;-54
2021/01/29 01:06:39;;;;;;;2.15;0.55;;;2.30;99.90;;;;;;5024226;28;20045;-52
2021/01/29 01:09:05;;;;;;;1.83;0.55;;;2.30;99.90;;;;;;5014078;28;20673;-53
2021/01/29 01:11:31;;;;;;;1.02;0.60;;;2.40;99.90;;;;;;5025853;28;20033;-51
2021/01/29 01:13:56;;;;;;;1.15;0.63;;;2.30;99.90;;;;;;5026311;28;20124;-52
2021/01/29 01:16:22;;;;;;;1.52;0.70;;;2.30;99.90;;;;;;5020729;28;20059;-51
2021/01/29 01:18:47;;;;;;;1.23;0.70;;;2.30;99.90;;;;;;5023002;28;20037;-51
2021/01/29 01:21:13;;;;;;;0.90;0.38;;;2.30;99.90;;;;;;5021040;28;20029;-51
2021/01/29 01:23:38;;;;;;;0.77;0.60;;;2.40;99.90;;;;;;5017225;28;20493;-52
2021/01/29 01:26:04;;;;;;;0.82;0.40;;;2.40;99.90;;;;;;5016398;28;20498;-49
2021/01/29 01:28:29;;;;;;;0.40;0.40;;;2.30;99.90;;;;;;5022270;28;20033;-53
2021/01/29 01:30:55;;;;;;;1.00;0.40;;;2.40;99.90;;;;;;5018773;28;20037;-55
2021/01/29 01:33:20;;;;;;;0.70;0.38;;;2.40;99.90;;;;;;5017773;28;20050;-55
2021/01/29 01:35:46;;;;;;;1.35;0.40;;;2.40;99.90;;;;;;5022422;28;20074;-49
2021/01/29 01:38:11;;;;;;;0.52;0.40;;;2.40;99.90;;;;;;5017970;28;20033;-53
2021/01/29 01:40:40;;;;;;;3.38;0.80;;;2.50;99.90;;;;;;5016145;28;20052;-50
2021/01/29 01:43:06;;;;;;;1.15;0.70;;;2.40;99.90;;;;;;5019346;28;20042;-48
2021/01/29 01:45:31;;;;;;;0.70;0.63;;;2.40;99.90;;;;;;5012941;28;20132;-51
2021/01/29 01:48:04;;;;;;;2.83;0.40;;;2.40;99.90;;;;;;5018882;28;20127;-49
2021/01/29 01:50:32;;;;;;;1.10;0.60;;;2.40;99.90;;;;;;5025435;28;20052;-50
2021/01/29 01:53:01;;;;;;;1.67;0.60;;;2.40;99.90;;;;;;5016510;28;20045;-54
2021/01/29 01:55:38;;;;;;;1.13;0.55;;;2.50;99.90;;;;;;5018490;28;20491;-53
2021/01/29 01:58:05;;;;;;;2.25;0.52;;;2.40;99.90;;;;;;5016206;28;20048;-54
2021/01/29 02:00:31;;;;;;;2.17;0.80;;;2.50;99.90;;;;;;5017120;28;20050;-54
2021/01/29 02:03:19;;;;;;;2.67;1.00;;;2.50;99.90;;;;;;5015358;28;20052;-56
2021/01/29 02:05:45;;;;;;;1.15;0.60;;;2.50;99.90;;;;;;5024453;28;20101;-56
2021/01/29 02:08:13;;;;;;;2.22;0.95;;;2.50;99.90;;;;;;5019894;28;20494;-54
2021/01/29 02:10:38;;;;;;;2.90;0.95;;;2.50;99.90;;;;;;5026879;28;20090;-53
2021/01/29 02:13:06;;;;;;;1.38;0.90;;;2.50;99.90;;;;;;5020905;28;20069;-54
2021/01/29 02:15:37;;;;;;;3.20;1.02;;;2.50;99.90;;;;;;5019353;28;20041;-55
2021/01/29 02:18:41;;;;;;;2.45;0.70;;;2.60;99.90;;;;;;5020379;28;20029;-52
2021/01/29 02:21:33;;;;;;;2.47;0.80;;;2.50;99.90;;;;;;5018157;28;20065;-56
2021/01/29 02:24:28;;;;;;;2.88;0.90;;;2.50;99.90;;;;;;5016772;28;20049;-55
2021/01/29 02:27:24;;;;;;;2.95;1.42;;;2.50;99.90;;;;;;5022908;28;20046;-54
2021/01/29 02:30:23;;;;;;;3.10;1.33;;;2.50;99.90;;;;;;5017506;28;20600;-54
2021/01/29 02:32:58;;;;;;;2.92;1.67;;;2.50;99.90;;;;;;5016408;28;20049;-55
2021/01/29 02:36:01;;;;;;;4.65;1.60;;;2.50;99.90;;;;;;5023388;28;20513;-56
2021/01/29 02:38:47;;;;;;;5.15;1.60;;;2.50;99.90;;;;;;5021892;28;20120;-55
2021/01/29 02:41:50;;;;;;;2.55;1.83;;;2.50;99.90;;;;;;5017335;28;20099;-55
2021/01/29 02:44:47;;;;;;;1.90;1.48;;;2.40;99.90;;;;;;5020048;28;20488;-54
2021/01/29 02:47:38;;;;;;;1.85;1.20;;;2.40;99.90;;;;;;5022959;28;20041;-55
2021/01/29 02:50:27;;;;;;;2.63;1.15;;;2.40;99.90;;;;;;5021153;28;20041;-52
2021/01/29 02:53:31;;;;;;;1.90;1.00;;;2.50;99.90;;;;;;5013616;28;20045;-56
2021/01/29 02:56:26;;;;;;;4.00;1.02;;;2.50;99.90;;;;;;4997052;28;20057;-55
2021/01/29 02:59:21;;;;;;;3.55;1.20;;;2.40;99.90;;;;;;5005046;28;20457;-57
2021/01/29 03:01:58;;;;;;;7.35;1.83;;;2.50;99.90;;;;;;5012726;28;20448;-54
2021/01/29 03:04:33;;;;;;;6.72;1.90;;;2.50;99.90;;;;;;5006599;28;20053;-52
2021/01/29 03:07:01;;;;;;;3.30;2.00;;;2.60;99.90;;;;;;5021720;28;20054;-58
2021/01/29 03:09:38;;;;;;;2.60;1.95;;;2.50;99.90;;;;;;5017317;28;20042;-57
2021/01/29 03:12:10;;;;;;;3.70;2.20;;;2.50;99.90;;;;;;5030229;28;20088;-50
2021/01/29 03:14:45;;;;;;;5.18;2.63;;;2.50;99.90;;;;;;5024712;28;20041;-54
2021/01/29 03:17:18;;;;;;;6.57;2.70;;;2.60;99.90;;;;;;5021670;28;20045;-56
2021/01/29 03:19:58;;;;;;;5.30;3.22;;;2.50;99.90;;;;;;5024529;28;20045;-57
2021/01/29 03:22:31;;;;;;;6.88;2.65;;;2.50;99.90;;;;;;5021527;28;20124;-54
2021/01/29 03:25:04;;;;;;;6.57;2.80;;;2.60;99.90;;;;;;5021143;28;20045;-56
2021/01/29 03:27:39;;;;;;;5.85;2.38;;;2.60;99.90;;;;;;5011239;28;20050;-55
2021/01/29 03:30:12;;;;;;;7.50;2.47;;;2.60;99.90;;;;;;5015795;28;20115;-52
2021/01/29 03:32:39;;;;;;;5.25;2.67;;;2.60;99.90;;;;;;5020329;28;20048;-53
2021/01/29 03:35:07;;;;;;;73.43;5.20;;;2.60;99.90;;;;;;5024444;28;20069;-53
2021/01/29 03:37:37;;;;;;;37.88;3.40;;;2.50;99.90;;;;;;5005143;28;20107;-56
2021/01/29 03:40:05;;;;;;;14.80;3.25;;;2.50;99.90;;;;;;5012403;28;20062;-54
2021/01/29 03:42:34;;;;;;;6.20;2.70;;;2.50;99.90;;;;;;5011501;28;20592;-52
2021/01/29 03:45:18;;;;;;;5.00;2.85;;;2.50;99.90;;;;;;5016732;28;20044;-58
2021/01/29 03:47:58;;;;;;;6.03;2.90;;;2.50;99.90;;;;;;5022937;28;20523;-55
2021/01/29 03:50:42;;;;;;;4.80;2.63;;;2.40;99.90;;;;;;5025820;28;20052;-57
2021/01/29 03:53:32;;;;;;;8.57;2.85;;;2.40;99.90;;;;;;5027474;28;20053;-57
2021/01/29 03:56:10;;;;;;;10.00;3.38;;;2.40;99.90;;;;;;5024008;28;20042;-54
2021/01/29 03:58:54;;;;;;;11.98;3.25;;;2.50;99.90;;;;;;5017620;28;20401;-55
2021/01/29 04:01:46;;;;;;;7.57;2.90;;;2.60;99.90;;;;;;5024837;28;20561;-56
2021/01/29 04:04:33;;;;;;;11.50;3.38;;;2.70;99.90;;;;;;5019734;28;20045;-55
2021/01/29 04:07:26;;;;;;;6.68;2.83;;;2.70;99.90;;;;;;5022962;28;20033;-55
2021/01/29 04:10:07;;;;;;;7.40;3.47;;;2.70;99.90;;;;;;5021182;28;20041;-54
2021/01/29 04:12:46;;;;;;;11.57;3.38;;;2.70;99.90;;;;;;5023718;28;20045;-55
2021/01/29 04:15:15;;;;;;;7.40;3.20;;;2.60;99.90;;;;;;5015432;28;20041;-49
2021/01/29 04:17:57;;;;;;;10.50;3.65;;;2.70;99.90;;;;;;5026553;28;20041;-56
2021/01/29 04:20:41;;;;;;;10.38;4.38;;;2.60;99.90;;;;;;5018374;28;20038;-52
2021/01/29 04:23:14;;;;;;;13.52;3.03;;;2.70;99.90;;;;;;5022274;28;20120;-56
2021/01/29 04:25:44;;;;;;;11.32;3.15;;;2.70;99.90;;;;;;5025174;28;20851;-51
2021/01/29 04:28:15;;;;;;;7.22;3.00;;;2.80;99.90;;;;;;5021124;28;20123;-55
2021/01/29 04:30:44;;;;;;;7.45;2.20;;;2.80;99.90;;;;;;5019068;28;20095;-55
2021/01/29 04:33:13;;;;;;;6.30;2.20;;;2.90;99.90;;;;;;5021630;28;20826;-55
2021/01/29 04:35:40;;;;;;;6.75;1.95;;;2.90;99.90;;;;;;5027012;28;20042;-55
2021/01/29 04:38:17;;;;;;;6.65;1.90;;;3.00;99.90;;;;;;5014435;28;20089;-55
2021/01/29 04:41:08;;;;;;;4.25;2.05;;;3.00;99.90;;;;;;5017092;28;20179;-52
2021/01/29 04:43:44;;;;;;;4.93;2.00;;;3.10;99.90;;;;;;5023310;28;20128;-55
2021/01/29 04:46:37;;;;;;;3.88;1.63;;;3.10;99.90;;;;;;5020517;28;20053;-58
2021/01/29 04:49:17;;;;;;;10.77;1.60;;;3.10;99.90;;;;;;5020541;28;20565;-50
2021/01/29 04:52:08;;;;;;;6.53;1.42;;;3.20;99.90;;;;;;5018883;28;20408;-51
2021/01/29 04:54:48;;;;;;;3.72;1.55;;;3.20;99.90;;;;;;5018655;28;20103;-56
2021/01/29 04:57:25;;;;;;;2.55;1.00;;;3.10;99.90;;;;;;5021129;28;20029;-52
2021/01/29 04:59:58;;;;;;;1.85;0.77;;;3.20;99.90;;;;;;5016245;28;20036;-49
2021/01/29 05:02:48;;;;;;;5.10;1.00;;;3.20;99.90;;;;;;5020808;28;20127;-54
2021/01/29 05:05:32;;;;;;;1.15;0.50;;;3.20;99.90;;;;;;5018757;28;20109;-56
2021/01/29 05:08:22;;;;;;;0.55;0.32;;;3.20;99.90;;;;;;5018246;28;20271;-49
2021/01/29 05:11:25;;;;;;;1.65;0.50;;;3.20;99.90;;;;;;5027547;28;20106;-52
2021/01/29 05:14:17;;;;;;;0.70;0.60;;;3.30;99.90;;;;;;5017556;28;20038;-51
2021/01/29 05:17:01;;;;;;;0.60;0.32;;;3.30;99.90;;;;;;5025248;28;20047;-54
2021/01/29 05:19:51;;;;;;;1.77;0.50;;;3.20;99.90;;;;;;5022715;28;20061;-54
2021/01/29 05:22:54;;;;;;;1.40;0.45;;;3.30;99.90;;;;;;5008067;28;20108;-49
2021/01/29 05:25:26;;;;;;;6.00;0.40;;;3.30;99.90;;;;;;5025272;28;20049;-50
2021/01/29 05:28:03;;;;;;;0.82;0.38;;;3.30;99.90;;;;;;5022050;28;20041;-57
2021/01/29 05:31:01;;;;;;;0.57;0.45;;;3.40;99.90;;;;;;5019774;28;20046;-51
2021/01/29 05:33:45;;;;;;;1.08;0.82;;;3.40;99.90;;;;;;5022286;28;20084;-53
2021/01/29 05:36:28;;;;;;;1.40;0.38;;;3.50;99.90;;;;;;5022863;28;20041;-52
2021/01/29 05:39:17;;;;;;;2.08;0.20;;;3.50;99.90;;;;;;5022427;28;20045;-51
2021/01/29 05:41:52;;;;;;;1.15;0.40;;;3.50;99.90;;;;;;5026983;28;20164;-55
2021/01/29 05:44:52;;;;;;;0.55;0.30;;;3.50;99.90;;;;;;5018546;28;20034;-51
2021/01/29 05:47:23;;;;;;;0.65;0.30;;;3.50;99.90;;;;;;5020679;28;20040;-54
2021/01/29 05:50:13;;;;;;;0.73;0.47;;;3.50;99.90;;;;;;5025505;28;20033;-50
2021/01/29 05:53:02;;;;;;;0.35;0.25;;;3.50;99.90;;;;;;5013212;28;20041;-51
2021/01/29 05:55:43;;;;;;;1.13;0.30;;;3.50;99.90;;;;;;5020146;28;20046;-50
2021/01/29 05:58:15;;;;;;;0.50;0.30;;;3.60;99.90;;;;;;5017349;28;20049;-54
2021/01/29 06:00:50;;;;;;;0.52;0.40;;;3.50;99.90;;;;;;5023443;28;20521;-54
2021/01/29 06:03:38;;;;;;;1.02;0.25;;;3.50;99.90;;;;;;5017331;28;20584;-51
2021/01/29 06:06:17;;;;;;;1.35;0.30;;;3.60;99.90;;;;;;5021913;28;20374;-54
2021/01/29 06:09:10;;;;;;;1.23;0.40;;;3.60;99.90;;;;;;5024894;28;20052;-53
2021/01/29 06:11:38;;;;;;;1.48;0.50;;;3.60;99.90;;;;;;5026819;28;20452;-54
2021/01/29 06:14:26;;;;;;;1.55;0.40;;;3.50;99.90;;;;;;5022286;28;20049;-49
2021/01/29 06:17:15;;;;;;;0.98;0.30;;;3.50;99.90;;;;;;5019945;28;20049;-54
2021/01/29 06:20:10;;;;;;;0.85;0.20;;;3.50;99.90;;;;;;5023641;28;20516;-52
2021/01/29 06:22:41;;;;;;;1.13;0.50;;;3.50;99.90;;;;;;4991367;28;20490;-56
2021/01/29 06:25:15;;;;;;;1.77;0.60;;;3.40;99.90;;;;;;5006817;28;20113;-54
2021/01/29 06:27:49;;;;;;;1.65;0.40;;;3.40;99.90;;;;;;5025475;28;20037;-54
2021/01/29 06:30:35;;;;;;;2.17;0.30;;;3.40;99.90;;;;;;5015516;28;20116;-52
2021/01/29 06:33:24;;;;;;;0.87;0.40;;;3.50;99.90;;;;;;5013715;28;20466;-53
2021/01/29 06:36:11;;;;;;;3.40;0.43;;;3.40;99.90;;;;;;5012431;28;20073;-53
2021/01/29 06:39:00;;;;;;;0.77;0.30;;;3.40;99.90;;;;;;5017050;28;20033;-55
2021/01/29 06:41:48;;;;;;;0.90;0.30;;;3.50;99.90;;;;;;5018401;28;20048;-56
2021/01/29 06:44:38;;;;;;;1.02;0.45;;;3.50;99.90;;;;;;5023932;28;20049;-56
2021/01/29 06:47:32;;;;;;;1.70;0.40;;;3.50;99.90;;;;;;5023709;28;20112;-56
2021/01/29 06:50:42;;;;;;;0.45;0.32;;;3.50;99.90;;;;;;4993883;28;20636;-55
2021/01/29 06:53:28;;;;;;;0.43;0.22;;;3.50;99.90;;;;;;5020345;28;20041;-57
2021/01/29 06:56:08;;;;;;;0.65;0.20;;;3.50;99.90;;;;;;5018161;28;20029;-58
2021/01/29 06:58:45;;;;;;;1.73;0.35;;;3.60;99.90;;;;;;5016392;28;20046;-56
2021/01/29 07:01:38;;;;;;;0.75;0.40;;;3.60;99.90;;;;;;5013237;28;20083;-58
2021/01/29 07:04:12;;;;;;;1.42;0.40;;;3.60;99.90;;;;;;5018850;28;20106;-57
2021/01/29 07:07:15;;;;;;;0.55;0.40;;;3.50;99.90;;;;;;5015799;28;20644;-54
2021/01/29 07:10:21;;;;;;;6.00;0.60;;;3.50;99.90;;;;;;5016749;28;20124;-60
2021/01/29 07:13:21;;;;;;;2.90;1.00;;;3.50;99.90;;;;;;5023633;28;20051;-57
2021/01/29 07:16:11;;;;;;;4.22;0.52;;;3.40;99.90;;;;;;5021993;28;20084;-56
2021/01/29 07:19:05;;;;;;;0.57;0.28;;;3.40;99.90;;;;;;5023123;28;20505;-54
2021/01/29 07:22:02;;;;;;;0.45;0.30;;;3.40;99.90;;;;;;5024032;28;20125;-56
2021/01/29 07:24:55;;;;;;;0.73;0.40;;;3.50;99.90;;;;;;5017082;28;20470;-54
2021/01/29 07:27:39;;;;;;;0.60;0.30;;;3.50;99.90;;;;;;5024130;28;20515;-54
2021/01/29 07:30:27;;;;;;;1.20;0.77;;;3.50;99.90;;;;;;5019613;28;20120;-53
2021/01/29 07:33:12;;;;;;;2.05;0.50;;;3.60;99.90;;;;;;5013621;28;20072;-50
2021/01/29 07:36:00;;;;;;;1.60;0.50;;;3.60;99.90;;;;;;5019463;28;20037;-57
2021/01/29 07:38:50;;;;;;;1.55;0.50;;;3.60;99.90;;;;;;5025799;28;20037;-54
2021/01/29 07:41:37;;;;;;;0.55;0.32;;;3.50;99.90;;;;;;5025257;28;20510;-54
2021/01/29 07:44:21;;;;;;;4.05;0.50;;;3.50;99.90;;;;;;5015247;28;20047;-57
2021/01/29 07:46:53;;;;;;;2.42;0.60;;;3.50;99.90;;;;;;5025921;28;20038;-52
2021/01/29 07:49:27;;;;;;;1.20;0.50;;;3.50;99.90;;;;;;5022913;28;20044;-56
2021/01/29 07:52:02;;;;;;;1.45;0.70;;;3.50;99.90;;;;;;5018339;28;20512;-56
2021/01/29 07:54:44;;;;;;;6.47;0.73;;;3.60;99.90;;;;;;5021831;28;20413;-59
2021/01/29 07:57:29;;;;;;;2.60;0.60;;;3.60;99.90;;;;;;5020376;28;20091;-56
2021/01/29 08:00:24;;;;;;;1.55;0.50;;;3.60;99.90;;;;;;5020763;28;20045;-56
2021/01/29 08:03:03;;;;;;;0.93;0.40;;;3.60;99.90;;;;;;5019642;28;20049;-59
2021/01/29 08:06:10;;;;;;;1.42;0.80;;;3.70;99.90;;;;;;5025628;28;20502;-55
2021/01/29 08:08:54;;;;;;;6.45;3.65;;;3.70;99.90;;;;;;5003680;28;20045;-58
2021/01/29 08:11:20;;;;;;;4.20;2.58;;;3.80;99.90;;;;;;5021864;28;20107;-55
2021/01/29 08:14:11;;;;;;;3.53;1.48;;;3.80;99.90;;;;;;5022421;28;20054;-56
2021/01/29 08:16:39;;;;;;;2.40;0.90;;;3.80;99.90;;;;;;5022609;28;20053;-57
2021/01/29 08:19:12;;;;;;;1.65;0.68;;;3.80;99.90;;;;;;5020853;28;20056;-54
2021/01/29 08:22:11;;;;;;;3.38;0.68;;;3.70;99.90;;;;;;5024502;28;20072;-59
2021/01/29 08:25:07;;;;;;;4.82;1.13;;;3.70;99.90;;;;;;5019798;28;20539;-56
2021/01/29 08:27:56;;;;;;;1.70;1.10;;;3.70;99.90;;;;;;5021912;28;20033;-54
2021/01/29 08:30:46;;;;;;;4.15;3.22;;;3.80;99.90;;;;;;5019858;28;20118;-58
2021/01/29 08:33:12;;;;;;;3.92;2.92;;;3.80;99.90;;;;;;5019346;28;20050;-52
2021/01/29 08:36:18;;;;;;;4.35;1.38;;;4.00;99.90;;;;;;5026946;28;20749;-55
2021/01/29 08:39:11;;;;;;;0.98;0.70;;;4.00;99.90;;;;;;5023682;28;20119;-55
2021/01/29 08:41:44;;;;;;;1.17;0.90;;;4.30;99.90;;;;;;5028780;28;20033;-53
2021/01/29 08:44:45;;;;;;;2.30;1.55;;;4.40;99.90;;;;;;5017563;28;20049;-50
2021/01/29 08:47:30;;;;;;;1.10;0.82;;;4.50;99.90;;;;;;5025522;28;20044;-54
2021/01/29 08:50:17;;;;;;;0.60;0.60;;;4.60;99.90;;;;;;5024439;28;20064;-55
2021/01/29 08:53:08;;;;;;;1.98;1.00;;;4.70;99.90;;;;;;5014528;28;20397;-55
2021/01/29 08:56:13;;;;;;;2.05;1.33;;;4.80;99.90;;;;;;5019515;28;20052;-55
2021/01/29 08:58:52;;;;;;;2.92;0.70;;;4.80;99.90;;;;;;5020360;28;20042;-55
2021/01/29 09:01:47;;;;;;;3.28;1.35;;;4.90;99.90;;;;;;5018518;28;20075;-56
2021/01/29 09:04:23;;;;;;;1.77;0.80;;;4.90;99.90;;;;;;5017354;28;20064;-53
2021/01/29 09:06:50;;;;;;;29.03;18.07;;;4.80;99.90;;;;;;5026698;28;20783;-57
2021/01/29 09:09:21;;;;;;;1.70;1.20;;;4.90;99.90;;;;;;5018098;28;20441;-53
2021/01/29 09:11:53;;;;;;;3.55;1.40;;;4.90;99.90;;;;;;5034263;28;20037;-54
2021/01/29 09:14:25;;;;;;;1.17;0.95;;;5.00;99.90;;;;;;5027950;28;20050;-51
2021/01/29 09:17:13;;;;;;;1.45;1.08;;;5.10;99.90;;;;;;5022683;28;20130;-54
2021/01/29 09:19:43;;;;;;;3.25;1.67;;;5.10;99.90;;;;;;5015585;28;20033;-53
2021/01/29 09:22:32;;;;;;;3.25;1.10;;;5.10;99.90;;;;;;5026494;28;20517;-57
2021/01/29 09:25:32;;;;;;;4.53;2.85;;;5.00;99.90;;;;;;5017967;28;20045;-57
2021/01/29 09:28:16;;;;;;;1.55;0.82;;;5.00;99.90;;;;;;5014849;28;20057;-57
2021/01/29 09:30:45;;;;;;;1.15;0.93;;;5.10;99.90;;;;;;5019701;28;20041;-57
2021/01/29 09:33:32;;;;;;;1.20;0.80;;;5.30;99.90;;;;;;5009843;28;20042;-57
2021/01/29 09:36:03;;;;;;;1.00;0.65;;;5.20;99.90;;;;;;5007216;28;20148;-52
2021/01/29 09:38:37;;;;;;;1.08;0.80;;;5.20;99.90;;;;;;5014727;28;20134;-57
2021/01/29 09:41:14;;;;;;;0.90;0.60;;;5.20;99.90;;;;;;5022974;28;20478;-54
2021/01/29 09:44:07;;;;;;;0.70;0.63;;;5.10;99.90;;;;;;5022530;28;20642;-53
2021/01/29 09:46:34;;;;;;;0.80;0.80;;;5.10;99.90;;;;;;5018608;28;20088;-56
2021/01/29 09:49:07;;;;;;;0.95;0.75;;;5.20;99.90;;;;;;5024101;28;20105;-56
2021/01/29 09:51:57;;;;;;;0.90;0.73;;;5.30;99.90;;;;;;5025301;28;20056;-56
2021/01/29 09:54:43;;;;;;;0.60;0.60;;;5.20;99.90;;;;;;5017336;28;20055;-56
2021/01/29 09:57:25;;;;;;;0.73;0.70;;;5.20;99.90;;;;;;5020448;28;20142;-53
2021/01/29 10:00:02;;;;;;;0.68;0.60;;;5.30;99.90;;;;;;5017866;28;20041;-54
2021/01/29 10:02:41;;;;;;;1.30;0.57;;;5.20;99.90;;;;;;5015304;28;20041;-56
2021/01/29 10:05:16;;;;;;;0.43;0.43;;;5.20;99.90;;;;;;5020115;28;20171;-56
2021/01/29 10:07:59;;;;;;;3.33;0.45;;;5.20;99.90;;;;;;5022454;28;20128;-51
2021/01/29 10:10:35;;;;;;;0.75;0.60;;;5.20;99.90;;;;;;5024107;28;20045;-55
2021/01/29 10:13:14;;;;;;;5.20;2.65;;;5.20;99.90;;;;;;5016370;28;20068;-52
2021/01/29 10:15:42;;;;;;;2.20;1.65;;;5.10;99.90;;;;;;5020963;28;20049;-54
2021/01/29 10:18:23;;;;;;;1.38;0.50;;;5.20;99.90;;;;;;5015704;28;20025;-55
2021/01/29 10:20:52;;;;;;;4.22;0.50;;;5.40;99.90;;;;;;5023107;28;20586;-55
2021/01/29 10:23:30;;;;;;;2.47;1.27;;;5.40;99.90;;;;;;5010181;28;20568;-56
2021/01/29 10:26:14;;;;;;;3.58;0.60;;;5.40;99.90;;;;;;5028245;28;20041;-55
2021/01/29 10:29:10;;;;;;;4.90;0.88;;;5.40;99.90;;;;;;5030962;28;20461;-56
2021/01/29 10:31:49;;;;;;;4.25;0.50;;;5.40;99.90;;;;;;5028611;28;20045;-56
2021/01/29 10:34:40;;;;;;;0.45;0.40;;;5.40;99.90;;;;;;5035882;28;20044;-56
2021/01/29 10:37:20;;;;;;;0.30;0.28;;;5.40;99.90;;;;;;5029075;28;20037;-56
2021/01/29 10:40:04;;;;;;;36.08;22.73;;;5.50;99.90;;;;;;5015340;28;20034;-57
2021/01/29 10:42:38;;;;;;;13.85;7.20;;;5.50;99.90;;;;;;5016848;28;20072;-58
2021/01/29 10:45:05;;;;;;;3.25;0.98;;;5.40;99.90;;;;;;5018168;28;20545;-56
2021/01/29 10:47:38;;;;;;;2.97;0.52;;;5.40;99.90;;;;;;5023410;28;20053;-59
2021/01/29 10:50:21;;;;;;;1.45;1.00;;;5.40;99.90;;;;;;5023780;28;20060;-56
2021/01/29 10:53:10;;;;;;;2.63;1.83;;;5.40;99.90;;;;;;5019940;28;20040;-56
2021/01/29 10:55:43;;;;;;;1.58;0.57;;;5.40;99.90;;;;;;5016808;28;20041;-57
2021/01/29 10:58:40;;;;;;;2.47;0.73;;;5.40;99.90;;;;;;5016524;28;20045;-55
2021/01/29 11:01:12;;;;;;;0.77;0.40;;;5.40;99.90;;;;;;5005907;28;20092;-57
2021/01/29 11:03:40;;;;;;;3.72;1.42;;;5.50;99.90;;;;;;5021404;28;20038;-53
2021/01/29 11:06:10;;;;;;;2.30;0.75;;;5.40;99.90;;;;;;5019718;28;20124;-57
2021/01/29 11:08:46;;;;;;;1.25;0.60;;;5.40;99.90;;;;;;5016332;28;20041;-52
2021/01/29 11:11:34;;;;;;;5.63;3.55;;;5.50;99.90;;;;;;5021511;28;20588;-55
2021/01/29 11:14:24;;;;;;;2.35;0.68;;;5.40;99.90;;;;;;5010727;28;20054;-57
2021/01/29 11:17:09;;;;;;;1.27;0.82;;;5.40;99.90;;;;;;5023154;28;20042;-56
2021/01/29 11:19:42;;;;;;;3.80;0.82;;;5.30;99.90;;;;;;5023322;28;20037;-54
2021/01/29 11:22:32;;;;;;;1.85;1.40;;;5.40;99.90;;;;;;5024558;28;20156;-57
2021/01/29 11:25:37;;;;;;;1.33;0.80;;;5.40;99.90;;;;;;5015509;28;20112;-54
2021/01/29 11:28:29;;;;;;;2.03;0.90;;;5.40;99.90;;;;;;5016273;28;20045;-56
2021/01/29 11:31:05;;;;;;;6.38;3.95;;;5.40;99.90;;;;;;5024984;28;20539;-56
2021/01/29 11:33:34;;;;;;;2.85;1.25;;;5.50;99.90;;;;;;5022371;28;20053;-57
2021/01/29 11:36:09;;;;;;;6.28;1.23;;;5.50;99.90;;;;;;5024410;28;20049;-54
2021/01/29 11:38:48;;;;;;;1.85;0.85;;;5.50;99.90;;;;;;5024429;28;20096;-57
2021/01/29 11:41:33;;;;;;;4.32;1.40;;;5.50;99.90;;;;;;5005752;28;20045;-52
2021/01/29 11:44:01;;;;;;;3.90;1.92;;;5.40;99.90;;;;;;5023965;28;20053;-55
2021/01/29 11:46:59;;;;;;;4.13;1.15;;;5.50;99.90;;;;;;5020748;28;20048;-58
2021/01/29 11:49:35;;;;;;;2.05;1.00;;;5.50;99.90;;;;;;5016244;28;20133;-53
2021/01/29 11:52:19;;;;;;;1.63;1.00;;;5.50;99.90;;;;;;5004623;28;20723;-60
2021/01/29 11:54:55;;;;;;;11.40;3.60;;;5.40;99.90;;;;;;5013750;28;20041;-54
2021/01/29 11:57:44;;;;;;;8.10;2.38;;;5.40;99.90;;;;;;5004275;28;20033;-57
2021/01/29 12:00:18;;;;;;;14.23;2.50;;;5.40;99.90;;;;;;5020290;28;20046;-55
2021/01/29 12:03:12;;;;;;;13.85;3.50;;;5.50;99.90;;;;;;5022967;28;20076;-57
2021/01/29 12:05:56;;;;;;;15.30;4.07;;;5.50;99.90;;;;;;5006293;28;20045;-55
2021/01/29 12:08:28;;;;;;;27.83;5.45;;;5.50;99.90;;;;;;5005873;28;20050;-54
2021/01/29 12:11:11;;;;;;;30.08;6.18;;;5.50;99.90;;;;;;5022785;28;20036;-53
2021/01/29 12:13:54;;;;;;;28.63;6.20;;;5.40;99.90;;;;;;5025539;28;20075;-59
2021/01/29 12:16:24;;;;;;;28.15;5.75;;;5.40;99.90;;;;;;5026158;28;20037;-55
2021/01/29 12:18:51;;;;;;;29.35;6.22;;;5.40;99.90;;;;;;5027061;28;20060;-57
2021/01/29 12:21:26;;;;;;;27.48;5.72;;;5.50;99.90;;;;;;5021672;28;20058;-55
2021/01/29 12:23:59;;;;;;;26.17;5.63;;;5.50;99.90;;;;;;5030215;28;20057;-56
2021/01/29 12:26:36;;;;;;;26.17;6.18;;;5.60;99.90;;;;;;5020187;28;20123;-56
2021/01/29 12:29:24;;;;;;;19.45;5.10;;;5.50;99.90;;;;;;5009039;28;20828;-54
2021/01/29 12:32:20;;;;;;;33.08;5.90;;;5.60;99.90;;;;;;5008527;28;20050;-50
2021/01/29 12:35:00;;;;;;;26.25;5.80;;;5.50;99.90;;;;;;5008660;28;20061;-53
2021/01/29 12:37:38;;;;;;;26.35;6.15;;;5.30;99.90;;;;;;5008453;28;20052;-57
2021/01/29 12:40:07;;;;;;;28.73;5.78;;;5.30;99.90;;;;;;5007679;28;20050;-55
2021/01/29 12:42:38;;;;;;;24.38;6.50;;;5.20;99.90;;;;;;5008408;28;20127;-55
2021/01/29 12:45:16;;;;;;;20.63;5.45;;;5.30;99.90;;;;;;5007990;28;20045;-54
2021/01/29 12:48:04;;;;;;;30.83;6.40;;;5.30;99.90;;;;;;5016926;28;20679;-55
2021/01/29 12:50:33;;;;;;;24.08;5.05;;;5.30;99.90;;;;;;5001611;28;20045;-54
2021/01/29 12:53:05;;;;;;;23.38;5.60;;;5.30;99.90;;;;;;5009701;28;20041;-60
2021/01/29 12:55:42;;;;;;;33.17;5.95;;;5.40;99.90;;;;;;5008681;28;20029;-55
2021/01/29 12:58:11;;;;;;;30.55;6.15;;;5.40;99.90;;;;;;5007386;28;20038;-59
2021/01/29 13:00:41;;;;;;;34.47;6.20;;;5.40;99.90;;;;;;5004119;28;20085;-55
2021/01/29 13:03:18;;;;;;;24.00;5.60;;;5.50;99.90;;;;;;5006915;28;20140;-56
2021/01/29 13:06:07;;;;;;;27.42;6.70;;;5.60;99.90;;;;;;5008987;28;20042;-56
2021/01/29 13:08:47;;;;;;;34.80;9.25;;;5.60;99.90;;;;;;5007750;28;20552;-55
2021/01/29 13:11:34;;;;;;;27.30;6.28;;;5.60;99.90;;;;;;5011872;28;20120;-56
2021/01/29 13:14:12;;;;;;;20.83;5.28;;;5.70;99.90;;;;;;5002568;28;20042;-54
2021/01/29 13:16:43;;;;;;;37.05;6.50;;;5.80;99.90;;;;;;5019543;28;20045;-56
2021/01/29 13:19:25;;;;;;;30.02;5.30;;;5.90;99.90;;;;;;5018948;28;20145;-57
2021/01/29 13:21:54;;;;;;;27.40;5.90;;;6.00;99.90;;;;;;5028139;28;20570;-55
2021/01/29 13:24:27;;;;;;;25.08;5.63;;;6.10;99.90;;;;;;5027402;28;20105;-58
2021/01/29 13:26:53;;;;;;;26.83;4.38;;;6.10;99.90;;;;;;5027626;28;20675;-57
2021/01/29 13:29:19;;;;;;;24.17;5.38;;;6.10;99.90;;;;;;5027378;28;20042;-56
2021/01/29 13:31:45;;;;;;;;;;;6.00;99.90;;;;;;5026646;28;20814;-57
2021/01/29 13:34:15;;;;;;;25.98;4.78;;;6.00;99.90;;;;;;5016914;28;19951;-54
2021/01/29 13:37:04;;;;;;;27.00;5.68;;;5.90;99.90;;;;;;5014098;28;20042;-58
2021/01/29 13:39:34;;;;;;;22.75;6.20;;;5.90;99.90;;;;;;5021039;28;20048;-56
2021/01/29 13:42:16;;;;;;;23.13;5.30;;;5.80;99.90;;;;;;5024832;28;20037;-55
2021/01/29 13:44:53;;;;;;;25.77;5.90;;;5.80;99.90;;;;;;5028399;28;20444;-56
2021/01/29 13:47:29;;;;;;;;;;;5.70;99.90;;;;;;5015816;28;20045;-56
2021/01/29 13:49:56;;;;;;;32.65;6.45;;;5.70;99.90;;;;;;5011524;28;19917;-55
2021/01/29 13:52:31;;;;;;;25.13;6.97;;;5.60;99.90;;;;;;5007417;28;20041;-58
2021/01/29 13:55:21;;;;;;;22.58;7.20;;;5.50;99.90;;;;;;5007441;28;20053;-56
2021/01/29 13:58:06;;;;;;;15.98;5.72;;;5.60;99.90;;;;;;5002367;28;20038;-55